Time;durP1;ratioP1;P1;durP2;ratioP2;P2;SDS_P1;SDS_P2;PMS_P1;PMS_P2;Temp;Humidity;BMP_temperature;BMP_pressure;BME280_temperature;BME280_humidity;BME280_pressure;Samples;Min_cycle;Max_cycle;Signal;HPM_P1;HPM_P2
2023/04/01 00:00:46;;;;;;;35.07;3.07;;;;;;;11.85;63.42;100253.91;5056894;28;20029;-67
2023/04/01 00:03:11;;;;;;;24.70;3.05;;;;;;;11.84;63.71;100259.19;5056658;28;20013;-66
2023/04/01 00:05:37;;;;;;;24.03;2.50;;;;;;;11.82;63.75;100258.34;5056963;28;20515;-66
2023/04/01 00:08:03;;;;;;;26.63;2.60;;;;;;;11.75;63.74;100263.69;5056891;28;20028;-66
2023/04/01 00:10:28;;;;;;;24.42;3.17;;;;;;;11.74;63.44;100269.84;5056481;28;20059;-66
2023/04/01 00:12:53;;;;;;;24.67;2.90;;;;;;;11.72;63.30;100263.72;5046438;28;20029;-66
2023/04/01 00:15:19;;;;;;;19.73;2.50;;;;;;;11.73;63.50;100272.50;5036769;28;20109;-67
2023/04/01 00:17:44;;;;;;;24.97;2.57;;;;;;;11.70;63.18;100273.41;5036007;28;20382;-66
2023/04/01 00:20:10;;;;;;;23.98;3.47;;;;;;;11.65;63.78;100269.91;5036590;28;20060;-66
2023/04/01 00:22:36;;;;;;;22.03;3.00;;;;;;;11.64;63.43;100265.53;5036618;28;20048;-66
2023/04/01 00:25:02;;;;;;;21.38;2.70;;;;;;;11.61;63.27;100270.81;5036408;28;20026;-66
2023/04/01 00:27:27;;;;;;;32.50;3.35;;;;;;;11.58;63.44;100258.56;5036361;28;20067;-66
2023/04/01 00:29:53;;;;;;;23.93;3.23;;;;;;;11.56;63.51;100262.09;5036738;28;20053;-66
2023/04/01 00:32:18;;;;;;;20.13;2.73;;;;;;;11.53;63.37;100257.69;5037042;28;20032;-67
2023/04/01 00:34:44;;;;;;;28.90;2.83;;;;;;;11.47;63.34;100248.09;5056533;28;20041;-66
2023/04/01 00:37:09;;;;;;;29.70;3.03;;;;;;;11.46;63.47;100254.25;5056377;28;20055;-66
2023/04/01 00:39:36;;;;;;;24.83;3.30;;;;;;;11.42;63.59;100255.16;5056517;28;20141;-66
2023/04/01 00:42:03;;;;;;;21.63;2.83;;;;;;;11.41;63.74;100242.84;5044408;28;20025;-66
2023/04/01 00:44:34;;;;;;;26.98;2.70;;;;;;;11.39;63.64;100243.75;5036607;28;20548;-66
2023/04/01 00:47:00;;;;;;;28.70;2.75;;;;;;;11.36;63.55;100249.94;5036204;28;20100;-66
2023/04/01 00:49:34;;;;;;;17.70;2.10;;;;;;;11.34;63.57;100251.69;5044632;28;20032;-66
2023/04/01 00:52:03;;;;;;;29.23;3.55;;;;;;;11.31;63.72;100247.31;5056335;28;20535;-66
2023/04/01 00:54:30;;;;;;;28.45;3.00;;;;;;;11.28;63.62;100251.75;5056264;28;20063;-66
2023/04/01 00:57:03;;;;;;;27.60;2.72;;;;;;;11.24;64.13;100250.88;5056407;28;20025;-66
2023/04/01 00:59:34;;;;;;;30.65;2.90;;;;;;;11.23;63.87;100251.78;5056272;28;20067;-66
2023/04/01 01:02:01;;;;;;;38.77;6.20;;;;;;;11.22;63.80;100241.25;5056039;28;20028;-66
2023/04/01 01:04:32;;;;;;;36.05;4.88;;;;;;;11.23;63.77;100245.66;5056291;28;20024;-66
2023/04/01 01:07:37;;;;;;;30.55;3.88;;;;;;;11.22;64.47;100246.53;5054868;28;20063;-66
2023/04/01 01:10:18;;;;;;;25.50;3.33;;;;;;;11.17;64.07;100255.31;5054688;28;20049;-66
2023/04/01 01:12:56;;;;;;;25.33;2.78;;;;;;;11.16;64.55;100258.84;5045936;28;20104;-66
2023/04/01 01:15:26;;;;;;;25.30;2.90;;;;;;;11.15;64.36;100257.09;5036213;28;20029;-66
2023/04/01 01:17:57;;;;;;;25.35;3.80;;;;;;;11.12;64.30;100257.13;5035825;28;20025;-66
2023/04/01 01:20:25;;;;;;;26.75;3.00;;;;;;;11.13;64.34;100258.00;5036230;28;20048;-66
2023/04/01 01:23:06;;;;;;;17.95;2.35;;;;;;;11.12;64.30;100256.25;5035979;28;20026;-66
2023/04/01 01:25:43;;;;;;;31.75;4.35;;;;;;;11.09;64.65;100257.16;5035984;28;20029;-66
2023/04/01 01:28:43;;;;;;;27.97;3.20;;;;;;;11.08;64.69;100255.41;5035990;28;20026;-66
2023/04/01 01:31:11;;;;;;;27.88;2.75;;;;;;;11.09;64.76;100248.34;5043472;28;20112;-66
2023/04/01 01:33:49;;;;;;;28.27;4.63;;;;;;;11.08;64.87;100244.84;5038024;28;20460;-66
2023/04/01 01:36:16;;;;;;;26.75;4.30;;;;;;;11.10;64.97;100251.00;5039781;28;20443;-66
2023/04/01 01:38:42;;;;;;;25.00;2.60;;;;;;;11.12;64.78;100246.56;5039472;28;20116;-66
2023/04/01 01:41:09;;;;;;;31.97;3.03;;;;;;;11.16;64.83;100253.56;5039566;28;20033;-66
2023/04/01 01:43:42;;;;;;;29.70;3.63;;;;;;;11.18;64.90;100251.81;5039740;28;20028;-66
2023/04/01 01:46:13;;;;;;;23.63;2.95;;;;;;;11.22;64.63;100243.91;5039534;28;20033;-66
2023/04/01 01:48:41;;;;;;;31.02;2.75;;;;;;;11.24;64.76;100245.63;5044925;28;20044;-66
2023/04/01 01:51:07;;;;;;;21.48;2.85;;;;;;;11.26;64.66;100242.97;5059421;28;20029;-66
2023/04/01 01:53:32;;;;;;;25.20;3.00;;;;;;;11.28;64.36;100244.72;5059069;28;20192;-66
2023/04/01 01:55:58;;;;;;;30.50;3.83;;;;;;;11.29;64.47;100237.69;5059397;28;20028;-66
2023/04/01 01:58:40;;;;;;;26.10;2.50;;;;;;;11.30;64.43;100234.16;5059365;28;20393;-66
2023/04/01 02:01:10;;;;;;;25.45;2.83;;;;;;;11.27;64.30;100237.69;5059212;28;20033;-66
2023/04/01 02:03:39;;;;;;;29.10;3.00;;;;;;;11.26;64.27;100228.03;5059227;28;20029;-66
2023/04/01 02:06:09;;;;;;;30.33;3.38;;;;;;;11.26;64.00;100235.06;5057737;28;20104;-66
2023/04/01 02:08:39;;;;;;;30.88;2.90;;;;;;;11.25;63.62;100225.41;5059093;28;20029;-66
2023/04/01 02:11:15;;;;;;;25.58;3.00;;;;;;;11.22;64.18;100221.03;5057494;28;20049;-66
2023/04/01 02:13:44;;;;;;;31.85;3.63;;;;;;;11.17;64.10;100218.44;5040756;28;20060;-66
2023/04/01 02:16:20;;;;;;;30.20;3.53;;;;;;;11.14;64.83;100207.91;5039300;28;20067;-66
2023/04/01 02:18:50;;;;;;;27.48;3.03;;;;;;;11.10;64.69;100208.81;5038683;28;20056;-66
2023/04/01 02:21:18;;;;;;;26.70;2.55;;;;;;;11.09;64.46;100214.97;5037663;28;20037;-66
2023/04/01 02:23:45;;;;;;;32.05;3.67;;;;;;;11.08;64.71;100218.50;5038307;28;20028;-66
2023/04/01 02:26:12;;;;;;;26.77;2.75;;;;;;;11.06;65.11;100222.91;5050896;28;20047;-66
2023/04/01 02:28:40;;;;;;;30.03;2.70;;;;;;;11.01;65.15;100216.81;5044556;28;20478;-66
2023/04/01 02:31:07;;;;;;;25.65;3.58;;;;;;;11.01;64.89;100220.28;5038872;28;20021;-66
2023/04/01 02:33:33;;;;;;;25.30;2.63;;;;;;;10.98;64.99;100220.31;5038220;28;20090;-66
2023/04/01 02:35:59;;;;;;;31.00;3.30;;;;;;;10.96;65.20;100218.56;5037447;28;20025;-66
2023/04/01 02:38:25;;;;;;;28.97;2.77;;;;;;;10.95;65.10;100206.28;5038512;28;20029;-66
2023/04/01 02:41:00;;;;;;;26.23;3.35;;;;;;;10.94;64.89;100204.53;5037826;28;20033;-66
2023/04/01 02:43:26;;;;;;;28.88;3.97;;;;;;;10.87;65.01;100215.13;5038742;28;20489;-66
2023/04/01 02:45:52;;;;;;;29.73;2.83;;;;;;;10.82;65.71;100210.75;5038417;28;20061;-66
2023/04/01 02:48:17;;;;;;;30.25;2.72;;;;;;;10.81;65.20;100215.16;5045628;28;20035;-66
2023/04/01 02:50:43;;;;;;;28.97;3.37;;;;;;;10.79;65.48;100222.19;5058364;28;20065;-66
2023/04/01 02:53:08;;;;;;;31.33;3.47;;;;;;;10.78;65.49;100215.19;5058004;28;20374;-66
2023/04/01 02:55:34;;;;;;;27.10;3.10;;;;;;;10.77;65.23;100216.06;5058150;28;20267;-66
2023/04/01 02:57:59;;;;;;;27.50;3.03;;;;;;;10.75;65.62;100216.06;5058497;28;20041;-66
2023/04/01 03:00:26;;;;;;;26.37;2.90;;;;;;;10.74;65.48;100209.03;5058180;28;20033;-66
2023/04/01 03:02:51;;;;;;;32.15;2.60;;;;;;;10.74;65.28;100213.47;5057652;28;20024;-66
2023/04/01 03:05:17;;;;;;;31.60;3.07;;;;;;;10.71;65.68;100202.91;5057902;28;20536;-66
2023/04/01 03:07:43;;;;;;;27.97;3.80;;;;;;;10.71;66.00;100205.53;5056651;28;20025;-66
2023/04/01 03:10:09;;;;;;;25.40;2.33;;;;;;;10.71;65.56;100208.19;5040043;28;20050;-66
2023/04/01 03:12:35;;;;;;;29.05;2.95;;;;;;;10.68;65.84;100213.47;5037904;28;20038;-66
2023/04/01 03:15:00;;;;;;;35.20;3.40;;;;;;;10.65;65.90;100208.22;5037686;28;20505;-66
2023/04/01 03:17:25;;;;;;;27.13;3.10;;;;;;;10.63;66.32;100206.47;5037682;28;20585;-66
2023/04/01 03:19:51;;;;;;;27.45;3.47;;;;;;;10.62;66.09;100199.47;5037474;28;20098;-66
2023/04/01 03:22:16;;;;;;;32.00;3.20;;;;;;;10.59;66.62;100201.22;5047943;28;20397;-65
2023/04/01 03:24:42;;;;;;;25.83;2.80;;;;;;;10.60;66.33;100190.69;5044352;28;20065;-65
2023/04/01 03:27:07;;;;;;;29.27;3.33;;;;;;;10.59;66.21;100199.47;5037651;28;20035;-65
2023/04/01 03:29:32;;;;;;;34.33;3.10;;;;;;;10.58;66.40;100187.19;5037146;28;20036;-65
2023/04/01 03:31:58;;;;;;;23.20;3.03;;;;;;;10.56;66.48;100194.22;5037425;28;20299;-65
2023/04/01 03:34:25;;;;;;;23.80;3.07;;;;;;;10.57;66.63;100192.44;5037205;28;20425;-65
2023/04/01 03:36:51;;;;;;;33.90;3.43;;;;;;;10.58;66.41;100197.72;5037385;28;20582;-65
2023/04/01 03:39:18;;;;;;;28.42;3.10;;;;;;;10.57;66.60;100193.34;5037048;28;20108;-65
2023/04/01 03:41:44;;;;;;;33.20;3.22;;;;;;;10.57;66.68;100190.72;5037209;28;20112;-65
2023/04/01 03:44:10;;;;;;;24.05;3.15;;;;;;;10.58;66.92;100199.47;5035882;28;20025;-65
2023/04/01 03:46:35;;;;;;;33.53;3.33;;;;;;;10.56;66.92;100188.97;5037119;28;20116;-65
2023/04/01 03:49:01;;;;;;;33.47;2.67;;;;;;;10.55;66.67;100192.47;5037081;28;20075;-65
2023/04/01 03:51:27;;;;;;;29.35;3.05;;;;;;;10.56;66.66;100188.06;5036946;28;20030;-65
2023/04/01 03:53:52;;;;;;;23.97;3.10;;;;;;;10.57;66.56;100184.56;5036414;28;20029;-65
2023/04/01 03:56:18;;;;;;;22.50;2.85;;;;;;;10.56;66.52;100173.16;5037283;28;20113;-65
2023/04/01 03:58:43;;;;;;;26.43;2.57;;;;;;;10.56;66.84;100191.59;5036889;28;20390;-65
2023/04/01 04:01:20;;;;;;;26.50;3.03;;;;;;;10.57;66.85;100181.91;5035621;28;20032;-65
2023/04/01 04:03:46;;;;;;;32.15;3.10;;;;;;;10.58;66.62;100187.19;5036988;28;20053;-65
2023/04/01 04:06:16;;;;;;;29.17;2.83;;;;;;;10.59;66.91;100183.69;5048771;28;20110;-65
2023/04/01 04:08:41;;;;;;;27.83;3.40;;;;;;;10.60;67.00;100182.78;5056795;28;20116;-65
2023/04/01 04:11:07;;;;;;;27.13;3.00;;;;;;;10.61;66.52;100188.94;5056793;28;20124;-65
2023/04/01 04:13:32;;;;;;;22.50;3.03;;;;;;;10.62;66.99;100188.91;5041156;28;20037;-65
2023/04/01 04:15:58;;;;;;;26.97;3.40;;;;;;;10.63;66.84;100180.13;5037137;28;20041;-65
2023/04/01 04:18:24;;;;;;;29.17;3.28;;;;;;;10.63;66.51;100174.88;5036852;28;20033;-65
2023/04/01 04:20:50;;;;;;;24.67;3.10;;;;;;;10.66;66.59;100179.25;5036822;28;20112;-65
2023/04/01 04:23:17;;;;;;;29.27;3.63;;;;;;;10.67;66.46;100174.84;5036539;28;20104;-65
2023/04/01 04:25:57;;;;;;;21.52;2.40;;;;;;;10.67;66.71;100180.13;5036935;28;20108;-65
2023/04/01 04:28:24;;;;;;;26.42;2.28;;;;;;;10.67;66.68;100180.13;5036611;28;20025;-65
2023/04/01 04:30:49;;;;;;;32.53;3.65;;;;;;;10.66;66.40;100173.09;5036672;28;20037;-65
2023/04/01 04:33:15;;;;;;;28.70;3.57;;;;;;;10.69;66.46;100175.72;5036470;28;20021;-64
2023/04/01 04:35:40;;;;;;;26.90;2.80;;;;;;;10.69;66.35;100186.25;5036600;28;20051;-67
2023/04/01 04:38:06;;;;;;;26.97;2.73;;;;;;;10.66;66.40;100175.72;5036847;28;20459;-66
2023/04/01 04:40:31;;;;;;;26.57;2.73;;;;;;;10.68;66.61;100169.59;5036747;28;20029;-65
2023/04/01 04:42:56;;;;;;;30.10;3.15;;;;;;;10.69;66.61;100178.34;5036572;28;20025;-66
2023/04/01 04:45:22;;;;;;;30.17;3.43;;;;;;;10.70;66.22;100188.00;5036571;28;20025;-65
2023/04/01 04:47:47;;;;;;;27.70;3.23;;;;;;;10.70;66.49;100183.63;5036398;28;20041;-64
2023/04/01 04:50:13;;;;;;;29.63;3.30;;;;;;;10.70;66.67;100180.09;5036503;28;20030;-65
2023/04/01 04:52:38;;;;;;;31.40;3.20;;;;;;;10.70;66.71;100186.25;5036702;28;20025;-66
2023/04/01 04:55:04;;;;;;;28.05;3.70;;;;;;;10.71;66.38;100187.09;5036420;28;20030;-66
2023/04/01 04:57:29;;;;;;;24.30;2.63;;;;;;;10.71;66.68;100181.84;5036722;28;20079;-66
2023/04/01 04:59:55;;;;;;;30.90;2.97;;;;;;;10.71;66.69;100179.22;5036768;28;20033;-67
2023/04/01 05:02:20;;;;;;;32.67;3.10;;;;;;;10.70;66.54;100186.25;5036308;28;20104;-66
2023/04/01 05:04:46;;;;;;;25.57;3.07;;;;;;;10.69;66.38;100196.78;5039359;28;20025;-67
2023/04/01 05:07:11;;;;;;;30.53;3.63;;;;;;;10.69;66.79;100196.78;5059936;28;20040;-67
2023/04/01 05:09:37;;;;;;;25.92;2.75;;;;;;;10.68;66.40;100181.88;5059107;28;20495;-66
2023/04/01 05:12:02;;;;;;;29.13;3.00;;;;;;;10.68;66.38;100188.03;5056768;28;20041;-67
2023/04/01 05:14:27;;;;;;;30.93;3.83;;;;;;;10.68;66.93;100180.13;5052525;28;20496;-67
2023/04/01 05:16:54;;;;;;;32.35;3.47;;;;;;;10.68;66.22;100174.84;5060143;28;20167;-67
2023/04/01 05:19:19;;;;;;;32.57;2.93;;;;;;;10.67;66.53;100172.22;5047147;28;20068;-67
2023/04/01 05:21:45;;;;;;;23.30;3.30;;;;;;;10.67;66.44;100172.22;5040109;28;20040;-67
2023/04/01 05:24:10;;;;;;;33.73;3.10;;;;;;;10.67;66.75;100180.13;5040027;28;20097;-67
2023/04/01 05:26:36;;;;;;;30.77;3.40;;;;;;;10.68;66.54;100172.22;5038885;28;20041;-66
2023/04/01 05:29:03;;;;;;;21.52;2.83;;;;;;;10.71;66.75;100177.47;5039649;28;20060;-67
2023/04/01 05:31:29;;;;;;;28.60;3.17;;;;;;;10.71;66.51;100176.56;5039834;28;20088;-66
2023/04/01 05:33:55;;;;;;;17.25;2.38;;;;;;;10.71;66.63;100188.00;5040019;28;20033;-67
2023/04/01 05:36:20;;;;;;;26.83;2.87;;;;;;;10.71;66.58;100176.56;5039885;28;20473;-66
2023/04/01 05:38:46;;;;;;;33.83;2.73;;;;;;;10.71;66.40;100173.94;5039789;28;20029;-67
2023/04/01 05:41:11;;;;;;;31.25;3.45;;;;;;;10.72;66.40;100178.31;5039667;28;20026;-67
2023/04/01 05:43:39;;;;;;;28.73;2.83;;;;;;;10.71;66.68;100185.38;5040008;28;20116;-67
2023/04/01 05:46:04;;;;;;;25.90;3.13;;;;;;;10.71;66.40;100179.22;5039450;28;20029;-66
2023/04/01 05:48:30;;;;;;;22.47;2.80;;;;;;;10.69;66.61;100189.78;5039762;28;20052;-67
2023/04/01 05:50:55;;;;;;;23.42;3.00;;;;;;;10.69;66.31;100180.97;5039638;28;20021;-67
2023/04/01 05:53:20;;;;;;;27.37;2.83;;;;;;;10.70;66.57;100191.53;5039353;28;20029;-67
2023/04/01 05:55:46;;;;;;;25.03;2.53;;;;;;;10.73;66.22;100193.25;5039554;28;20096;-65
2023/04/01 05:58:11;;;;;;;27.30;2.63;;;;;;;10.77;66.61;100195.00;5039630;28;20029;-67
2023/04/01 06:00:37;;;;;;;25.57;3.30;;;;;;;10.80;66.37;100197.59;5039393;28;20068;-67
2023/04/01 06:03:02;;;;;;;25.70;2.45;;;;;;;10.81;66.02;100199.34;5039284;28;20575;-65
2023/04/01 06:05:30;;;;;;;21.70;2.67;;;;;;;10.85;66.30;100201.09;5044660;28;20021;-67
2023/04/01 06:08:00;;;;;;;26.20;2.70;;;;;;;10.89;65.94;100202.81;5059176;28;20035;-65
2023/04/01 06:10:38;;;;;;;30.17;3.80;;;;;;;10.88;66.25;100206.31;5050528;28;20049;-66
2023/04/01 06:13:03;;;;;;;26.10;3.53;;;;;;;10.92;66.10;100212.47;5047420;28;20033;-66
2023/04/01 06:15:39;;;;;;;27.67;3.05;;;;;;;10.93;66.00;100202.78;5038361;28;20054;-67
2023/04/01 06:18:34;;;;;;;31.08;2.88;;;;;;;10.93;65.80;100208.94;5039054;28;20039;-67
2023/04/01 06:21:24;;;;;;;23.73;3.03;;;;;;;10.92;66.15;100217.72;5038339;28;20063;-66
2023/04/01 06:23:49;;;;;;;22.23;2.47;;;;;;;10.94;65.88;100217.69;5037550;28;20037;-66
2023/04/01 06:26:35;;;;;;;27.67;2.95;;;;;;;10.94;66.12;100221.22;5039088;28;20040;-66
2023/04/01 06:29:07;;;;;;;24.20;2.67;;;;;;;10.95;65.95;100222.09;5037217;28;20119;-66
2023/04/01 06:31:32;;;;;;;24.42;3.22;;;;;;;10.97;65.99;100225.59;5039026;28;20034;-66
2023/04/01 06:34:22;;;;;;;21.90;2.90;;;;;;;11.01;66.32;100222.06;5037537;28;20444;-66
2023/04/01 06:36:57;;;;;;;23.55;2.97;;;;;;;11.03;65.82;100221.16;5037505;28;20427;-66
2023/04/01 06:39:28;;;;;;;33.92;2.70;;;;;;;11.06;65.85;100218.50;5038569;28;20064;-66
2023/04/01 06:42:05;;;;;;;24.63;2.85;;;;;;;11.08;65.85;100213.22;5037397;28;20037;-66
2023/04/01 06:44:55;;;;;;;21.33;2.20;;;;;;;11.08;65.89;100218.50;5038817;28;20030;-65
2023/04/01 06:47:47;;;;;;;26.67;2.47;;;;;;;11.13;65.71;100218.47;5036955;28;20087;-66
2023/04/01 06:50:33;;;;;;;23.73;3.45;;;;;;;11.18;65.71;100220.16;5038523;28;20470;-66
2023/04/01 06:53:12;;;;;;;29.33;3.55;;;;;;;11.23;65.93;100220.16;5038379;28;20033;-66
2023/04/01 06:56:09;;;;;;;28.63;3.67;;;;;;;11.27;65.35;100215.75;5038535;28;20041;-66
2023/04/01 06:58:44;;;;;;;26.80;3.20;;;;;;;11.28;65.23;100225.41;5034162;28;20076;-66
2023/04/01 07:01:20;;;;;;;25.73;3.47;;;;;;;11.31;65.15;100222.72;5038210;28;20067;-66
2023/04/01 07:04:17;;;;;;;23.73;2.63;;;;;;;11.31;65.17;100220.94;5036873;28;20025;-66
2023/04/01 07:06:52;;;;;;;27.88;2.70;;;;;;;11.36;65.13;100220.06;5036634;28;20029;-66
2023/04/01 07:09:26;;;;;;;22.40;2.60;;;;;;;11.39;65.16;100218.25;5058021;28;20068;-66
2023/04/01 07:11:56;;;;;;;25.50;2.83;;;;;;;11.43;65.26;100221.75;5055984;28;20053;-66
2023/04/01 07:14:24;;;;;;;21.23;2.75;;;;;;;11.46;64.95;100213.81;5038158;28;20033;-66
2023/04/01 07:17:12;;;;;;;29.20;3.00;;;;;;;11.48;64.75;100222.59;5037666;28;20374;-66
2023/04/01 07:20:01;;;;;;;24.67;2.80;;;;;;;11.53;64.78;100214.66;5037656;28;20048;-66
2023/04/01 07:22:43;;;;;;;27.25;2.25;;;;;;;11.57;65.06;100219.00;5038105;28;20096;-66
2023/04/01 07:25:18;;;;;;;26.10;2.23;;;;;;;11.60;64.86;100216.31;5038063;28;20037;-66
2023/04/01 07:27:45;;;;;;;26.23;2.60;;;;;;;11.67;64.87;100215.38;5035081;28;20024;-66
2023/04/01 07:30:23;;;;;;;32.88;3.33;;;;;;;11.68;64.58;100214.47;5037668;28;20036;-66
2023/04/01 07:33:11;;;;;;;28.77;3.88;;;;;;;11.72;64.53;100207.44;5037529;28;20398;-66
2023/04/01 07:36:02;;;;;;;30.50;3.15;;;;;;;11.72;64.48;100204.78;5037764;28;20025;-66
2023/04/01 07:38:46;;;;;;;24.00;2.53;;;;;;;11.83;64.49;100212.59;5037625;28;20104;-66
2023/04/01 07:41:37;;;;;;;18.40;2.25;;;;;;;11.95;64.08;100211.59;5036947;28;20144;-66
2023/04/01 07:44:41;;;;;;;26.52;3.60;;;;;;;12.08;63.60;100201.81;5036971;28;20032;-66
2023/04/01 07:47:15;;;;;;;24.35;2.22;;;;;;;12.22;62.65;100204.28;5027696;28;20071;-66
2023/04/01 07:49:57;;;;;;;29.17;3.53;;;;;;;12.30;62.47;100200.66;5039784;28;20032;-66
2023/04/01 07:52:35;;;;;;;26.77;3.57;;;;;;;12.38;62.40;100194.41;5053965;28;20489;-66
2023/04/01 07:55:28;;;;;;;22.67;2.50;;;;;;;12.49;62.08;100195.16;5057242;28;20028;-66
2023/04/01 07:58:40;;;;;;;22.83;2.70;;;;;;;12.61;62.00;100188.84;5056559;28;20108;-66
2023/04/01 08:01:11;;;;;;;20.75;2.88;;;;;;;12.78;61.41;100183.31;4983367;28;20026;-66
2023/04/01 08:03:53;;;;;;;28.88;2.75;;;;;;;12.92;61.12;100189.28;4985774;28;20118;-66
2023/04/01 08:06:41;;;;;;;31.47;3.53;;;;;;;13.02;60.70;100181.19;5018489;28;20029;-66
2023/04/01 08:09:36;;;;;;;32.83;3.38;;;;;;;13.09;60.82;100171.41;5033871;28;20025;-68
2023/04/01 08:12:31;;;;;;;37.08;3.72;;;;;;;13.18;60.69;100164.19;5032027;28;20584;-66
2023/04/01 08:15:10;;;;;;;28.85;3.45;;;;;;;13.35;60.38;100163.03;5036892;28;20037;-67
2023/04/01 08:18:05;;;;;;;20.65;2.13;;;;;;;13.60;60.00;100159.97;5028763;28;20038;-67
2023/04/01 08:20:48;;;;;;;24.80;2.73;;;;;;;13.91;58.82;100151.47;5026343;28;20048;-66
2023/04/01 08:23:17;;;;;;;29.50;3.15;;;;;;;14.32;57.46;100149.72;5037839;28;20029;-67
2023/04/01 08:26:01;;;;;;;26.85;3.35;;;;;;;14.66;56.74;100141.94;5036901;28;20040;-67
2023/04/01 08:28:35;;;;;;;22.95;2.28;;;;;;;14.89;55.58;100136.13;5035344;28;20056;-67
2023/04/01 08:31:08;;;;;;;23.02;2.70;;;;;;;15.06;54.70;100127.75;5049249;28;20175;-67
2023/04/01 08:33:36;;;;;;;22.27;2.60;;;;;;;15.16;54.98;100139.88;5048187;28;20038;-67
2023/04/01 08:36:22;;;;;;;27.27;3.05;;;;;;;15.11;54.38;100125.88;5048090;28;20033;-66
2023/04/01 08:39:10;;;;;;;22.02;2.38;;;;;;;15.11;54.35;100131.19;5048047;28;20403;-66
2023/04/01 08:42:03;;;;;;;17.15;2.42;;;;;;;15.21;53.91;100131.81;5036860;28;20026;-66
2023/04/01 08:45:02;;;;;;;23.95;3.15;;;;;;;15.36;53.71;100136.72;5039093;28;20109;-66
2023/04/01 08:47:46;;;;;;;21.27;2.73;;;;;;;15.46;52.14;100132.03;5037221;28;20061;-64
2023/04/01 08:50:25;;;;;;;22.27;2.53;;;;;;;15.45;51.48;100135.59;5036199;28;20033;-66
2023/04/01 08:53:08;;;;;;;19.40;2.22;;;;;;;15.47;51.50;100138.25;5036852;28;20033;-64
2023/04/01 08:55:39;;;;;;;21.52;2.67;;;;;;;15.55;50.64;100124.72;5041588;28;20040;-65
2023/04/01 08:58:27;;;;;;;16.70;1.75;;;;;;;15.38;49.76;100134.03;5031363;28;20038;-67
2023/04/01 09:01:02;;;;;;;20.57;2.47;;;;;;;15.22;49.43;100125.59;5031853;28;20508;-66
2023/04/01 09:04:19;;;;;;;18.40;2.05;;;;;;;15.12;49.03;100124.97;5036143;28;20556;-66
2023/04/01 09:06:54;;;;;;;14.10;1.70;;;;;;;15.02;48.37;100131.41;5013706;28;20074;-65
2023/04/01 09:09:44;;;;;;;12.00;1.70;;;;;;;15.03;47.82;100127.84;5008041;28;20115;-65
2023/04/01 09:12:46;;;;;;;14.85;1.85;;;;;;;15.00;47.86;100117.31;5031136;28;20053;-66
2023/04/01 09:15:30;;;;;;;14.20;1.70;;;;;;;15.17;48.48;100120.41;5036254;28;20444;-66
2023/04/01 09:18:13;;;;;;;14.00;2.45;;;;;;;15.48;47.71;100111.63;5036083;28;20113;-66
2023/04/01 09:20:45;;;;;;;12.13;1.92;;;;;;;15.61;47.77;100124.59;5034848;28;20034;-66
2023/04/01 09:23:29;;;;;;;11.00;1.65;;;;;;;15.71;46.43;100114.59;5035973;28;20030;-66
2023/04/01 09:26:40;;;;;;;10.88;1.33;;;;;;;15.84;46.97;100126.59;5036139;28;20436;-66
2023/04/01 09:29:34;;;;;;;12.40;1.30;;;;;;;15.95;46.13;100113.03;5035776;28;20030;-66
2023/04/01 09:32:24;;;;;;;13.82;1.42;;;;;;;16.02;45.48;100114.59;5036053;28;20057;-66
2023/04/01 09:34:54;;;;;;;10.15;1.27;;;;;;;15.95;45.21;100102.44;5036399;28;20076;-66
2023/04/01 09:37:41;;;;;;;10.30;1.40;;;;;;;15.97;44.62;100107.72;5035945;28;20441;-66
2023/04/01 09:40:18;;;;;;;8.82;1.58;;;;;;;16.03;45.55;100099.56;5036438;28;20065;-66
2023/04/01 09:43:02;;;;;;;13.83;1.37;;;;;;;16.24;45.39;100092.72;5036104;28;20026;-66
2023/04/01 09:45:40;;;;;;;11.13;1.83;;;;;;;16.43;44.70;100092.16;5034859;28;20025;-66
2023/04/01 09:48:42;;;;;;;11.85;1.40;;;;;;;16.52;44.48;100070.63;5034629;28;20569;-66
2023/04/01 09:51:37;;;;;;;17.58;2.08;;;;;;;16.63;43.85;100083.53;5037739;28;20104;-66
2023/04/01 09:54:41;;;;;;;12.00;1.50;;;;;;;16.82;43.74;100067.00;5039225;28;20092;-66
2023/04/01 09:57:37;;;;;;;10.80;1.67;;;;;;;17.01;43.97;100061.97;5056388;28;20025;-66
2023/04/01 10:00:17;;;;;;;17.15;2.25;;;;;;;17.27;43.05;100049.56;5059407;28;20051;-66
2023/04/01 10:02:46;;;;;;;11.32;1.20;;;;;;;17.46;42.31;100041.75;5059269;28;20064;-66
2023/04/01 10:05:26;;;;;;;11.63;1.58;;;;;;;17.44;42.60;100060.44;5051645;28;20021;-66
2023/04/01 10:08:29;;;;;;;13.68;1.75;;;;;;;17.62;43.13;100050.06;5039278;28;20501;-65
2023/04/01 10:11:17;;;;;;;15.47;2.00;;;;;;;17.88;42.35;100038.44;5037914;28;20038;-66
2023/04/01 10:14:24;;;;;;;15.10;2.28;;;;;;;17.91;42.73;100051.63;5039273;28;20021;-65
2023/04/01 10:17:14;;;;;;;11.43;1.55;;;;;;;17.92;41.27;100049.81;5048498;28;20104;-66
2023/04/01 10:19:54;;;;;;;20.63;2.45;;;;;;;17.98;41.61;100041.63;5036044;28;20026;-65
2023/04/01 10:22:35;;;;;;;7.80;1.17;;;;;;;18.03;39.53;100031.69;5049856;28;20025;-65
2023/04/01 10:25:15;;;;;;;11.67;1.80;;;;;;;18.23;40.37;100035.38;5043193;28;20025;-65
2023/04/01 10:28:01;;;;;;;12.25;1.67;;;;;;;18.51;39.75;100031.56;5033624;28;20029;-65
2023/04/01 10:30:33;;;;;;;14.65;1.80;;;;;;;18.72;39.00;100029.81;5038801;28;20428;-65
2023/04/01 10:33:16;;;;;;;14.77;2.80;;;;;;;18.92;39.42;100031.63;5056860;28;20040;-66
2023/04/01 10:36:09;;;;;;;11.35;1.52;;;;;;;18.87;38.82;100038.97;5041381;28;20587;-65
2023/04/01 10:38:43;;;;;;;12.47;1.93;;;;;;;18.70;39.28;100030.81;5038802;28;20030;-66
2023/04/01 10:41:38;;;;;;;15.00;2.10;;;;;;;18.55;39.95;100029.63;5037637;28;20025;-66
2023/04/01 10:44:19;;;;;;;12.73;1.80;;;;;;;18.52;39.91;100033.31;5039687;28;20017;-65
2023/04/01 10:47:02;;;;;;;11.02;1.33;;;;;;;18.36;40.52;100039.25;5038335;28;20040;-65
2023/04/01 10:49:48;;;;;;;11.30;1.52;;;;;;;18.24;40.23;100029.09;5038510;28;20079;-67
2023/04/01 10:52:42;;;;;;;15.43;2.23;;;;;;;17.93;40.47;100027.59;5053698;28;20527;-66
2023/04/01 10:55:28;;;;;;;14.68;1.80;;;;;;;17.62;41.03;100028.75;5038321;28;20104;-66
2023/04/01 10:58:12;;;;;;;10.65;1.50;;;;;;;17.28;41.74;100028.19;5038430;28;20025;-66
2023/04/01 11:01:12;;;;;;;13.25;2.25;;;;;;;16.94;42.42;100035.53;5038004;28;20064;-66
2023/04/01 11:03:46;;;;;;;13.93;1.63;;;;;;;16.68;42.89;100044.41;5031872;28;20021;-66
2023/04/01 11:06:49;;;;;;;14.07;1.83;;;;;;;16.33;45.01;100047.28;5037807;28;20029;-66
2023/04/01 11:09:26;;;;;;;12.68;1.67;;;;;;;16.03;46.44;100067.69;5037767;28;20022;-66
2023/04/01 11:12:15;;;;;;;11.43;1.70;;;;;;;15.70;47.36;100075.69;5040185;28;20509;-66
2023/04/01 11:14:52;;;;;;;12.00;1.50;;;;;;;15.34;48.70;100076.66;5037971;28;20033;-66
2023/04/01 11:17:50;;;;;;;11.43;1.30;;;;;;;14.97;50.06;100074.97;5037504;28;20033;-66
2023/04/01 11:20:43;;;;;;;11.00;1.43;;;;;;;14.53;54.11;100093.66;5027801;28;20472;-65
2023/04/01 11:23:27;;;;;;;13.70;1.55;;;;;;;14.26;55.55;100093.38;5037533;28;20482;-65
2023/04/01 11:26:36;;;;;;;10.60;1.70;;;;;;;13.92;57.59;100106.41;5037721;28;20033;-65
2023/04/01 11:29:29;;;;;;;9.77;1.10;;;;;;;13.70;59.26;100120.97;5027972;28;20120;-65
2023/04/01 11:32:27;;;;;;;10.77;1.08;;;;;;;13.54;60.81;100109.81;5037367;28;20088;-65
2023/04/01 11:35:14;;;;;;;8.67;1.00;;;;;;;13.59;60.61;100097.38;5055542;28;20048;-66
2023/04/01 11:38:12;;;;;;;12.30;1.20;;;;;;;13.60;61.43;100088.53;5037738;28;20494;-66
2023/04/01 11:41:03;;;;;;;6.53;0.65;;;;;;;13.67;60.22;100079.59;5024065;28;20457;-66
2023/04/01 11:43:43;;;;;;;6.80;0.90;;;;;;;13.71;59.82;100073.34;5069466;28;20048;-66
2023/04/01 11:46:34;;;;;;;7.90;1.45;;;;;;;13.69;58.77;100074.25;5036550;28;20033;-66
2023/04/01 11:49:24;;;;;;;10.07;1.10;;;;;;;13.76;58.28;100074.09;5035753;28;20033;-65
2023/04/01 11:52:01;;;;;;;7.18;0.73;;;;;;;13.81;57.59;100065.19;5037485;28;20032;-66
2023/04/01 11:54:45;;;;;;;5.53;0.80;;;;;;;13.88;56.98;100077.41;5037285;28;20037;-65